Time;durP1;ratioP1;P1;durP2;ratioP2;P2;SDS_P1;SDS_P2;PMS_P1;PMS_P2;Temp;Humidity;BMP_temperature;BMP_pressure;BME280_temperature;BME280_humidity;BME280_pressure;Samples;Min_cycle;Max_cycle;Signal;HPM_P1;HPM_P2
2022/04/20 00:01:45;;;;;;;2.65;1.58;;;;;;;;;;8233148;28;20070;-73
2022/04/20 00:05:45;;;;;;;2.35;1.45;;;;;;;;;;8217658;28;20792;-74
2022/04/20 00:09:47;;;;;;;2.63;1.92;;;;;;;;;;8238560;28;20053;-74
2022/04/20 00:13:48;;;;;;;2.33;1.70;;;;;;;;;;8217713;28;20031;-74
2022/04/20 00:17:48;;;;;;;3.20;1.70;;;;;;;;;;8244627;28;20059;-73
2022/04/20 00:21:48;;;;;;;2.70;1.67;;;;;;;;;;8244105;28;20296;-74
2022/04/20 00:25:49;;;;;;;4.57;1.48;;;;;;;;;;8246817;28;20250;-74
2022/04/20 00:29:49;;;;;;;2.35;1.60;;;;;;;;;;8248470;28;20053;-74
2022/04/20 00:33:49;;;;;;;4.15;1.92;;;;;;;;;;8251569;28;20156;-74
2022/04/20 00:37:49;;;;;;;2.22;1.50;;;;;;;;;;8233138;28;20094;-74
2022/04/20 00:41:51;;;;;;;1.83;1.65;;;;;;;;;;8249818;28;20049;-74
2022/04/20 00:45:52;;;;;;;8.32;1.90;;;;;;;;;;8234558;28;20049;-74
2022/04/20 00:49:52;;;;;;;2.95;1.63;;;;;;;;;;8243228;28;20022;-73
2022/04/20 00:53:57;;;;;;;1.98;1.60;;;;;;;;;;8242019;28;20542;-74
2022/04/20 00:57:58;;;;;;;1.73;1.50;;;;;;;;;;8226033;28;20027;-74
2022/04/20 01:02:11;;;;;;;2.42;1.63;;;;;;;;;;8224306;28;20035;-74
2022/04/20 01:06:11;;;;;;;1.88;1.50;;;;;;;;;;8241863;28;20033;-74
2022/04/20 01:10:11;;;;;;;2.40;1.73;;;;;;;;;;8236766;28;20023;-73
2022/04/20 01:14:12;;;;;;;2.83;1.48;;;;;;;;;;8237913;28;20079;-74
2022/04/20 01:18:13;;;;;;;1.80;1.70;;;;;;;;;;8219545;28;20090;-73
2022/04/20 01:22:14;;;;;;;1.60;1.40;;;;;;;;;;8219367;28;20423;-74
2022/04/20 01:26:14;;;;;;;3.35;1.88;;;;;;;;;;8237987;28;20031;-74
2022/04/20 01:30:14;;;;;;;4.40;1.60;;;;;;;;;;8238682;28;20042;-73
2022/04/20 01:34:14;;;;;;;1.80;1.40;;;;;;;;;;8235995;28;20020;-74
2022/04/20 01:38:15;;;;;;;4.05;1.80;;;;;;;;;;8235189;28;20025;-74
2022/04/20 01:42:15;;;;;;;1.93;1.50;;;;;;;;;;8242858;28;20033;-73
2022/04/20 01:46:15;;;;;;;2.45;1.63;;;;;;;;;;8222637;28;20286;-74
2022/04/20 01:50:16;;;;;;;1.73;1.42;;;;;;;;;;8225280;28;20027;-74
2022/04/20 01:54:17;;;;;;;2.53;1.77;;;;;;;;;;8246591;28;20023;-74
2022/04/20 01:58:17;;;;;;;3.90;1.60;;;;;;;;;;8248131;28;20601;-74
2022/04/20 02:02:36;;;;;;;1.60;1.50;;;;;;;;;;8245716;28;20130;-74
2022/04/20 02:06:36;;;;;;;5.18;2.28;;;;;;;;;;8243518;28;20045;-73
2022/04/20 02:10:37;;;;;;;3.05;1.40;;;;;;;;;;8244975;28;20349;-73
2022/04/20 02:14:37;;;;;;;2.03;1.50;;;;;;;;;;8245201;28;20090;-74
2022/04/20 02:18:38;;;;;;;1.65;1.50;;;;;;;;;;8239266;28;20057;-73
2022/04/20 02:22:38;;;;;;;2.22;1.60;;;;;;;;;;8221092;28;20023;-74
2022/04/20 02:26:38;;;;;;;2.05;1.50;;;;;;;;;;8244734;28;20364;-74
2022/04/20 02:30:39;;;;;;;2.45;1.30;;;;;;;;;;8239264;28;20489;-73
2022/04/20 02:34:39;;;;;;;2.07;1.77;;;;;;;;;;8221652;28;20030;-74
2022/04/20 02:38:39;;;;;;;1.38;1.27;;;;;;;;;;8227169;28;20994;-74
2022/04/20 02:42:40;;;;;;;1.83;1.52;;;;;;;;;;8219612;28;20027;-73
2022/04/20 02:46:42;;;;;;;2.05;1.55;;;;;;;;;;8237318;28;20042;-73
2022/04/20 02:50:43;;;;;;;1.80;1.45;;;;;;;;;;8236220;28;20621;-74
2022/04/20 02:54:43;;;;;;;6.63;2.25;;;;;;;;;;8236596;28;20027;-73
2022/04/20 02:58:43;;;;;;;3.55;1.50;;;;;;;;;;8238257;28;20117;-74
2022/04/20 03:02:45;;;;;;;1.50;1.40;;;;;;;;;;8232672;28;20444;-73
2022/04/20 03:06:45;;;;;;;1.73;1.50;;;;;;;;;;8237029;28;20042;-74
2022/04/20 03:10:46;;;;;;;1.70;1.58;;;;;;;;;;8235442;28;20027;-73
2022/04/20 03:14:46;;;;;;;3.55;1.85;;;;;;;;;;8219701;28;20022;-73
2022/04/20 03:18:48;;;;;;;5.32;1.40;;;;;;;;;;8236099;28;20042;-73
2022/04/20 03:22:48;;;;;;;1.77;1.40;;;;;;;;;;8234078;28;20034;-73
2022/04/20 03:26:49;;;;;;;2.30;1.55;;;;;;;;;;8238860;28;20030;-73
2022/04/20 03:30:49;;;;;;;1.73;1.40;;;;;;;;;;8235362;28;20043;-73
2022/04/20 03:34:49;;;;;;;2.17;1.30;;;;;;;;;;8237917;28;20289;-73
2022/04/20 03:38:50;;;;;;;2.70;1.47;;;;;;;;;;8236060;28;20278;-73
2022/04/20 03:42:50;;;;;;;1.50;1.40;;;;;;;;;;8237991;28;20629;-73
2022/04/20 03:46:51;;;;;;;1.85;1.38;;;;;;;;;;8235535;28;20038;-74
2022/04/20 03:50:51;;;;;;;3.33;1.80;;;;;;;;;;8234593;28;20031;-73
2022/04/20 03:54:51;;;;;;;1.52;1.30;;;;;;;;;;8237645;28;20050;-73
2022/04/20 03:58:51;;;;;;;2.33;1.70;;;;;;;;;;8220844;28;20098;-73
2022/04/20 04:02:56;;;;;;;1.67;1.58;;;;;;;;;;8236190;28;20045;-73
2022/04/20 04:06:57;;;;;;;1.98;1.58;;;;;;;;;;8237158;28;20023;-73
2022/04/20 04:10:58;;;;;;;2.05;1.88;;;;;;;;;;8222641;28;20037;-74
2022/04/20 04:14:59;;;;;;;2.30;1.58;;;;;;;;;;8234786;28;20530;-74
2022/04/20 04:18:59;;;;;;;2.07;1.50;;;;;;;;;;8237160;28;20424;-73
2022/04/20 04:22:59;;;;;;;2.85;2.08;;;;;;;;;;8218846;28;20297;-73
2022/04/20 04:27:03;;;;;;;4.10;1.90;;;;;;;;;;8223225;28;20092;-73
2022/04/20 04:31:03;;;;;;;1.90;1.77;;;;;;;;;;8217772;28;20271;-73
2022/04/20 04:35:03;;;;;;;2.20;1.58;;;;;;;;;;8234872;28;20030;-73
2022/04/20 04:39:04;;;;;;;2.35;1.27;;;;;;;;;;8218630;28;20037;-73
2022/04/20 04:43:04;;;;;;;5.45;1.40;;;;;;;;;;8236476;28;20062;-73
2022/04/20 04:51:23;;;;;;;4.03;1.85;;;;;;;;;;8237266;28;20078;-73
2022/04/20 04:55:24;;;;;;;1.65;1.50;;;;;;;;;;8233244;28;20026;-73
2022/04/20 04:59:24;;;;;;;2.03;1.67;;;;;;;;;;8220996;28;20038;-73
2022/04/20 05:03:24;;;;;;;3.33;1.77;;;;;;;;;;8209704;28;20039;-74
2022/04/20 05:07:25;;;;;;;1.70;1.60;;;;;;;;;;8206435;28;20138;-73
2022/04/20 05:11:25;;;;;;;3.22;1.80;;;;;;;;;;8193647;28;20026;-73
2022/04/20 05:15:26;;;;;;;5.90;1.60;;;;;;;;;;8198394;28;20118;-73
2022/04/20 05:19:27;;;;;;;2.58;1.90;;;;;;;;;;8185153;28;20626;-74
2022/04/20 05:23:27;;;;;;;1.80;1.60;;;;;;;;;;8200951;28;20027;-73
2022/04/20 05:27:27;;;;;;;5.18;1.70;;;;;;;;;;8185124;28;20026;-73
2022/04/20 05:31:28;;;;;;;3.35;2.08;;;;;;;;;;8200238;28;20046;-74
2022/04/20 05:35:28;;;;;;;3.55;2.20;;;;;;;;;;8200082;28;20045;-73
2022/04/20 05:43:47;;;;;;;5.45;1.85;;;;;;;;;;8199553;28;20090;-74
2022/04/20 05:47:48;;;;;;;2.20;1.53;;;;;;;;;;8181521;28;20043;-74
2022/04/20 05:51:48;;;;;;;3.10;1.83;;;;;;;;;;8196768;28;20137;-74
2022/04/20 05:55:48;;;;;;;1.70;1.58;;;;;;;;;;8198667;28;20476;-74
2022/04/20 05:59:48;;;;;;;2.40;1.63;;;;;;;;;;8200815;28;20065;-74
2022/04/20 06:03:49;;;;;;;3.47;1.90;;;;;;;;;;8197287;28;20046;-74
2022/04/20 06:07:49;;;;;;;2.85;1.98;;;;;;;;;;8198791;28;20381;-74
2022/04/20 06:11:52;;;;;;;2.93;2.17;;;;;;;;;;8197998;28;20823;-74
2022/04/20 06:15:54;;;;;;;2.30;2.00;;;;;;;;;;8198581;28;20382;-74
2022/04/20 06:19:54;;;;;;;5.30;1.90;;;;;;;;;;8188433;28;20097;-74
2022/04/20 06:23:54;;;;;;;4.97;2.03;;;;;;;;;;8181412;28;20716;-74
2022/04/20 06:27:54;;;;;;;2.95;1.83;;;;;;;;;;8198813;28;20150;-74
2022/04/20 06:31:55;;;;;;;2.22;1.90;;;;;;;;;;8199861;28;20039;-74
2022/04/20 06:35:55;;;;;;;7.60;2.30;;;;;;;;;;8189596;28;20029;-74
2022/04/20 06:39:56;;;;;;;2.28;1.85;;;;;;;;;;8199891;28;20030;-73
2022/04/20 06:43:57;;;;;;;2.08;1.88;;;;;;;;;;8183486;28;20030;-73
2022/04/20 06:48:00;;;;;;;6.40;2.10;;;;;;;;;;8197208;28;20046;-73
2022/04/20 07:00:53;;;;;;;3.60;1.98;;;;;;;;;;8174709;28;20419;-73
2022/04/20 07:04:53;;;;;;;4.05;1.95;;;;;;;;;;8198640;28;20023;-73
2022/04/20 07:08:55;;;;;;;2.30;2.00;;;;;;;;;;8200318;28;20367;-74
2022/04/20 07:12:55;;;;;;;2.53;1.88;;;;;;;;;;8202172;28;20138;-74
2022/04/20 07:16:55;;;;;;;3.20;1.80;;;;;;;;;;8201188;28;20412;-74
2022/04/20 07:20:55;;;;;;;2.63;1.90;;;;;;;;;;8196397;28;20027;-74
2022/04/20 07:24:55;;;;;;;2.28;1.90;;;;;;;;;;8200291;28;20030;-74
2022/04/20 07:28:56;;;;;;;6.25;1.95;;;;;;;;;;8201136;28;20043;-74
2022/04/20 07:32:56;;;;;;;2.53;1.90;;;;;;;;;;8200903;28;20564;-73
2022/04/20 07:36:56;;;;;;;3.30;1.97;;;;;;;;;;8202549;28;20029;-74
2022/04/20 07:40:56;;;;;;;2.08;1.73;;;;;;;;;;8199658;28;22390;-73
2022/04/20 07:44:57;;;;;;;2.67;1.98;;;;;;;;;;8198890;28;20050;-74
2022/04/20 07:48:57;;;;;;;3.65;2.03;;;;;;;;;;8185903;28;20071;-73
2022/04/20 07:52:58;;;;;;;3.13;1.67;;;;;;;;;;8202037;28;20054;-74
2022/04/20 07:56:58;;;;;;;3.58;1.85;;;;;;;;;;8199929;28;20106;-74
2022/04/20 08:00:58;;;;;;;3.22;1.85;;;;;;;;;;8201885;28;20098;-74
2022/04/20 08:04:58;;;;;;;3.58;2.10;;;;;;;;;;8182399;28;20034;-74
2022/04/20 08:08:59;;;;;;;3.10;1.90;;;;;;;;;;8204305;28;20018;-74
2022/04/20 08:12:59;;;;;;;6.07;2.15;;;;;;;;;;8199360;28;20022;-74
2022/04/20 08:16:59;;;;;;;3.00;2.20;;;;;;;;;;8188039;28;20057;-73
2022/04/20 08:20:59;;;;;;;2.47;2.10;;;;;;;;;;8205261;28;20027;-74
2022/04/20 08:25:05;;;;;;;1.85;1.73;;;;;;;;;;8206767;28;20054;-74
2022/04/20 08:29:09;;;;;;;4.57;2.15;;;;;;;;;;8200707;28;20090;-74
2022/04/20 08:33:10;;;;;;;2.80;2.17;;;;;;;;;;8206131;28;21005;-73
2022/04/20 08:37:10;;;;;;;3.53;1.88;;;;;;;;;;8200201;28;20022;-74
2022/04/20 08:41:11;;;;;;;2.17;1.83;;;;;;;;;;8189546;28;20089;-74
2022/04/20 08:45:12;;;;;;;2.60;2.17;;;;;;;;;;8198094;28;20026;-74
2022/04/20 08:49:12;;;;;;;3.55;1.90;;;;;;;;;;8202638;28;20034;-74
2022/04/20 08:53:16;;;;;;;6.03;1.60;;;;;;;;;;8205417;28;20041;-74
2022/04/20 08:57:16;;;;;;;;;;;;;;;;;;8195603;28;20038;-74
2022/04/20 09:01:17;;;;;;;3.90;1.80;;;;;;;;;;8203872;28;19925;-74
2022/04/20 09:05:17;;;;;;;2.25;1.70;;;;;;;;;;8184166;28;20712;-74
2022/04/20 09:09:18;;;;;;;2.97;1.90;;;;;;;;;;8203350;28;20034;-74
2022/04/20 09:13:29;;;;;;;2.38;1.58;;;;;;;;;;8203350;28;20030;-74
2022/04/20 09:17:39;;;;;;;2.17;1.58;;;;;;;;;;8183253;28;20071;-74
2022/04/20 09:21:39;;;;;;;2.22;1.70;;;;;;;;;;8201715;28;20121;-73
2022/04/20 09:25:41;;;;;;;3.42;2.08;;;;;;;;;;8204170;28;20861;-73
2022/04/20 09:29:51;;;;;;;2.75;2.00;;;;;;;;;;8205515;28;20067;-73
2022/04/20 09:33:54;;;;;;;2.47;2.20;;;;;;;;;;8184074;28;20034;-73
2022/04/20 09:38:05;;;;;;;1.85;1.75;;;;;;;;;;8187948;28;20604;-73
2022/04/20 09:42:06;;;;;;;1.58;1.48;;;;;;;;;;8202464;28;20655;-73
2022/04/20 09:50:29;;;;;;;4.18;2.00;;;;;;;;;;8204027;28;20110;-75
2022/04/20 09:54:29;;;;;;;3.47;1.70;;;;;;;;;;8199175;28;20027;-74
2022/04/20 09:58:34;;;;;;;2.88;2.00;;;;;;;;;;8199294;28;20107;-74
2022/04/20 10:02:38;;;;;;;1.70;1.60;;;;;;;;;;8199167;28;20778;-73
2022/04/20 10:06:41;;;;;;;4.45;1.98;;;;;;;;;;8200935;28;20034;-73
2022/04/20 10:10:42;;;;;;;2.72;1.60;;;;;;;;;;8198805;28;20023;-73
2022/04/20 10:19:02;;;;;;;3.28;1.60;;;;;;;;;;8200055;28;20085;-73
2022/04/20 10:23:02;;;;;;;2.47;2.00;;;;;;;;;;8202195;28;20030;-73
2022/04/20 10:27:06;;;;;;;3.05;1.98;;;;;;;;;;8179382;28;20038;-73
2022/04/20 10:31:11;;;;;;;2.75;1.58;;;;;;;;;;8182741;28;20026;-73
2022/04/20 10:35:11;;;;;;;5.28;1.98;;;;;;;;;;8182599;28;20134;-73
2022/04/20 10:39:22;;;;;;;2.22;1.95;;;;;;;;;;8200134;28;20106;-73
2022/04/20 10:43:26;;;;;;;3.75;1.90;;;;;;;;;;8182611;28;20022;-73
2022/04/20 10:47:29;;;;;;;3.10;1.80;;;;;;;;;;8197661;28;20149;-74
2022/04/20 10:51:30;;;;;;;3.28;2.22;;;;;;;;;;8197992;28;20038;-73
2022/04/20 10:55:30;;;;;;;2.03;1.85;;;;;;;;;;8199752;28;20117;-73
2022/04/20 10:59:30;;;;;;;2.80;1.90;;;;;;;;;;8198795;28;20054;-74
2022/04/20 11:03:50;;;;;;;3.67;2.30;;;;;;;;;;8196760;28;20689;-73
2022/04/20 11:08:01;;;;;;;3.67;2.00;;;;;;;;;;8181147;28;20157;-73
2022/04/20 11:21:08;;;;;;;4.03;2.13;;;;;;;;;;8200488;28;20637;-73
2022/04/20 11:25:09;;;;;;;4.80;2.40;;;;;;;;;;8195615;28;20464;-74
2022/04/20 11:29:12;;;;;;;4.50;2.20;;;;;;;;;;8193984;28;20819;-73
2022/04/20 11:33:13;;;;;;;3.28;2.00;;;;;;;;;;8193503;28;20034;-74
2022/04/20 11:37:13;;;;;;;5.38;2.30;;;;;;;;;;8194403;28;20016;-74
2022/04/20 11:41:15;;;;;;;4.43;2.30;;;;;;;;;;8194090;28;20034;-74
2022/04/20 11:45:32;;;;;;;3.25;2.40;;;;;;;;;;8176573;28;20464;-73
2022/04/20 11:49:50;;;;;;;1.85;1.75;;;;;;;;;;8178230;28;20034;-73
2022/04/20 11:53:51;;;;;;;3.03;2.17;;;;;;;;;;8193721;28;20030;-73
2022/04/20 11:57:52;;;;;;;4.82;2.10;;;;;;;;;;8192192;28;20087;-74
2022/04/20 12:01:52;;;;;;;2.30;2.10;;;;;;;;;;8192041;28;20045;-75
2022/04/20 12:06:03;;;;;;;3.97;1.97;;;;;;;;;;8193909;28;20146;-74
2022/04/20 12:10:03;;;;;;;3.03;2.20;;;;;;;;;;8174865;28;20919;-75
2022/04/20 12:14:04;;;;;;;2.30;2.10;;;;;;;;;;8178766;28;20409;-75
2022/04/20 12:18:04;;;;;;;2.10;1.87;;;;;;;;;;8192073;28;20035;-74
2022/04/20 12:22:05;;;;;;;2.40;2.10;;;;;;;;;;8181524;28;20258;-74
2022/04/20 12:26:05;;;;;;;2.97;1.80;;;;;;;;;;8192669;28;20023;-74
2022/04/20 12:30:06;;;;;;;6.30;2.40;;;;;;;;;;8182286;28;20129;-74
2022/04/20 12:34:07;;;;;;;3.67;2.17;;;;;;;;;;8193802;28;20014;-74
2022/04/20 12:38:07;;;;;;;4.57;2.00;;;;;;;;;;8176413;28;20031;-73
2022/04/20 12:42:09;;;;;;;2.43;1.97;;;;;;;;;;8192008;28;20027;-73
2022/04/20 12:46:13;;;;;;;4.60;2.55;;;;;;;;;;8192971;28;20278;-73
2022/04/20 12:50:14;;;;;;;4.53;2.28;;;;;;;;;;8192457;28;20142;-74
2022/04/20 12:54:24;;;;;;;3.35;2.22;;;;;;;;;;8193509;28;20029;-74
2022/04/20 13:02:55;;;;;;;2.83;2.00;;;;;;;;;;8193116;28;20045;-74
2022/04/20 13:06:56;;;;;;;5.03;1.83;;;;;;;;;;8174737;28;20030;-74
2022/04/20 13:10:56;;;;;;;3.37;2.20;;;;;;;;;;8192464;28;20134;-75
2022/04/20 13:14:56;;;;;;;3.13;2.20;;;;;;;;;;8192274;28;20365;-74
2022/04/20 13:18:56;;;;;;;2.85;2.20;;;;;;;;;;8175987;28;20511;-74
2022/04/20 13:22:57;;;;;;;2.97;1.95;;;;;;;;;;8190398;28;20061;-74
2022/04/20 13:31:16;;;;;;;3.92;2.10;;;;;;;;;;8192021;28;20555;-74
2022/04/20 13:35:17;;;;;;;3.90;2.00;;;;;;;;;;8193788;28;20720;-74
2022/04/20 13:39:17;;;;;;;3.70;2.28;;;;;;;;;;8197839;28;20096;-74
2022/04/20 13:43:17;;;;;;;3.72;1.90;;;;;;;;;;8197991;28;20033;-74
2022/04/20 13:47:17;;;;;;;3.17;2.03;;;;;;;;;;8197358;28;20034;-75
2022/04/20 13:51:17;;;;;;;3.10;2.08;;;;;;;;;;8199438;28;20101;-74
2022/04/20 13:55:17;;;;;;;2.15;1.98;;;;;;;;;;8180427;28;20018;-74
2022/04/20 13:59:18;;;;;;;2.88;2.05;;;;;;;;;;8196116;28;20027;-74
2022/04/20 14:03:18;;;;;;;3.50;1.80;;;;;;;;;;8178169;28;20129;-74
2022/04/20 14:07:18;;;;;;;2.75;2.10;;;;;;;;;;8195393;28;20149;-73
2022/04/20 14:11:18;;;;;;;2.15;1.80;;;;;;;;;;8171675;28;20038;-74
2022/04/20 14:15:19;;;;;;;3.03;2.00;;;;;;;;;;8195735;28;20452;-74
2022/04/20 14:19:19;;;;;;;2.13;1.90;;;;;;;;;;8179648;28;20416;-74
2022/04/20 14:23:19;;;;;;;2.85;2.30;;;;;;;;;;8195889;28;20035;-74
2022/04/20 14:35:57;;;;;;;2.28;1.70;;;;;;;;;;8196883;28;20037;-74
2022/04/20 14:39:58;;;;;;;2.75;1.90;;;;;;;;;;8179819;28;20328;-74
2022/04/20 14:43:58;;;;;;;4.13;1.80;;;;;;;;;;8196900;28;20411;-74
2022/04/20 14:48:01;;;;;;;2.45;1.83;;;;;;;;;;8194931;28;20046;-74
2022/04/20 14:52:02;;;;;;;9.05;2.42;;;;;;;;;;8195499;28;20172;-73
2022/04/20 14:56:03;;;;;;;6.10;1.90;;;;;;;;;;8178139;28;20029;-74
2022/04/20 15:00:03;;;;;;;2.90;1.92;;;;;;;;;;8197096;28;20023;-74
2022/04/20 15:04:04;;;;;;;2.40;1.88;;;;;;;;;;8179682;28;20026;-74
2022/04/20 15:08:05;;;;;;;2.67;1.83;;;;;;;;;;8196487;28;20116;-74
2022/04/20 15:12:05;;;;;;;4.15;2.00;;;;;;;;;;8194937;28;20165;-73
2022/04/20 15:16:05;;;;;;;5.82;2.13;;;;;;;;;;8196144;28;20066;-72
2022/04/20 15:20:06;;;;;;;6.45;2.10;;;;;;;;;;8183526;28;20904;-73
2022/04/20 15:24:06;;;;;;;6.22;2.00;;;;;;;;;;8171205;28;20029;-72
2022/04/20 15:28:06;;;;;;;2.08;1.85;;;;;;;;;;8175448;28;20130;-72
2022/04/20 15:32:07;;;;;;;1.75;1.65;;;;;;;;;;8172300;28;20035;-72
2022/04/20 15:36:08;;;;;;;3.15;1.80;;;;;;;;;;8188502;28;20019;-73
2022/04/20 15:40:09;;;;;;;3.58;1.77;;;;;;;;;;8188873;28;20113;-74
2022/04/20 15:44:10;;;;;;;4.10;1.80;;;;;;;;;;8167076;28;21003;-73
2022/04/20 15:48:10;;;;;;;2.67;2.00;;;;;;;;;;8188934;28;20755;-76
2022/04/20 15:52:11;;;;;;;4.00;2.03;;;;;;;;;;8191498;28;20161;-75
2022/04/20 16:00:32;;;;;;;3.83;1.80;;;;;;;;;;8189875;28;20567;-79
2022/04/20 16:04:33;;;;;;;5.15;1.65;;;;;;;;;;8193115;28;20129;-78
2022/04/20 16:08:34;;;;;;;4.38;1.40;;;;;;;;;;8192417;28;20502;-77
2022/04/20 16:12:36;;;;;;;2.50;1.48;;;;;;;;;;8190474;28;20134;-76
2022/04/20 16:16:37;;;;;;;1.75;1.45;;;;;;;;;;8188995;28;20174;-75
2022/04/20 16:20:37;;;;;;;1.80;1.55;;;;;;;;;;8171760;28;20058;-74
2022/04/20 16:24:38;;;;;;;2.10;1.58;;;;;;;;;;8188604;28;20038;-73
2022/04/20 16:28:38;;;;;;;1.65;1.52;;;;;;;;;;8190690;28;20027;-74
2022/04/20 16:32:38;;;;;;;1.67;1.45;;;;;;;;;;8157159;28;20043;-74
2022/04/20 16:36:41;;;;;;;2.30;1.60;;;;;;;;;;8159342;28;20024;-75
2022/04/20 16:40:42;;;;;;;1.40;1.30;;;;;;;;;;8156331;28;20063;-74
2022/04/20 16:44:42;;;;;;;1.45;1.30;;;;;;;;;;8158970;28;20135;-74
2022/04/20 16:48:42;;;;;;;1.63;1.35;;;;;;;;;;8158455;28;20043;-74
2022/04/20 16:52:43;;;;;;;8.00;1.63;;;;;;;;;;8157097;28;20031;-74
2022/04/20 16:56:44;;;;;;;3.20;1.50;;;;;;;;;;8169868;28;20023;-74
2022/04/20 17:00:47;;;;;;;2.20;1.40;;;;;;;;;;8155949;28;20489;-71
2022/04/20 17:04:47;;;;;;;5.65;1.70;;;;;;;;;;8159304;28;20507;-71
2022/04/20 17:08:47;;;;;;;2.90;1.50;;;;;;;;;;8171997;28;20417;-71
2022/04/20 17:12:48;;;;;;;4.65;1.73;;;;;;;;;;8160552;28;20138;-70
2022/04/20 17:16:48;;;;;;;1.85;1.70;;;;;;;;;;8148323;28;20461;-70
2022/04/20 17:29:26;;;;;;;3.35;1.80;;;;;;;;;;8131334;29;20078;-71
2022/04/20 17:33:26;;;;;;;5.13;1.67;;;;;;;;;;8154600;28;20131;-71
2022/04/20 17:37:26;;;;;;;4.13;1.70;;;;;;;;;;8162577;28;20263;-71
2022/04/20 17:41:27;;;;;;;2.55;1.63;;;;;;;;;;8163475;28;20311;-70
2022/04/20 17:45:27;;;;;;;1.87;1.73;;;;;;;;;;8161987;28;20145;-71
2022/04/20 17:49:27;;;;;;;1.75;1.65;;;;;;;;;;8163386;28;20066;-71
2022/04/20 17:53:28;;;;;;;4.07;1.58;;;;;;;;;;8162485;28;20026;-71
2022/04/20 17:57:28;;;;;;;4.68;1.85;;;;;;;;;;8161282;28;20027;-71
2022/04/20 18:01:29;;;;;;;1.90;1.50;;;;;;;;;;8161982;28;20035;-71
2022/04/20 18:05:29;;;;;;;2.97;1.40;;;;;;;;;;8160470;28;21324;-71
2022/04/20 18:09:29;;;;;;;3.60;1.52;;;;;;;;;;8162699;28;20074;-71
2022/04/20 18:13:29;;;;;;;1.23;1.13;;;;;;;;;;8174693;28;20042;-71
2022/04/20 18:17:30;;;;;;;3.58;1.20;;;;;;;;;;8162231;28;20353;-71
2022/04/20 18:21:30;;;;;;;2.25;1.20;;;;;;;;;;8164241;28;20040;-70
2022/04/20 18:25:30;;;;;;;5.78;1.27;;;;;;;;;;8162134;28;20033;-70
2022/04/20 18:29:30;;;;;;;3.05;1.30;;;;;;;;;;8160618;28;21000;-71
2022/04/20 18:33:31;;;;;;;1.48;1.38;;;;;;;;;;8162444;28;20028;-71
2022/04/20 18:37:31;;;;;;;1.50;1.40;;;;;;;;;;8160860;28;20124;-71
2022/04/20 18:41:33;;;;;;;2.67;1.45;;;;;;;;;;8161120;28;20493;-71
2022/04/20 18:45:33;;;;;;;1.98;1.40;;;;;;;;;;8159593;28;20039;-71
2022/04/20 18:49:33;;;;;;;1.73;1.50;;;;;;;;;;8161424;28;20141;-71
2022/04/20 18:57:53;;;;;;;2.47;1.70;;;;;;;;;;8163197;28;21026;-71
2022/04/20 19:01:53;;;;;;;3.83;2.08;;;;;;;;;;8161319;28;20813;-71
2022/04/20 19:05:53;;;;;;;2.10;1.70;;;;;;;;;;8159639;28;20038;-71
2022/04/20 19:09:56;;;;;;;3.13;1.75;;;;;;;;;;8157859;28;20965;-71
2022/04/20 19:13:56;;;;;;;3.55;1.80;;;;;;;;;;8159409;28;20555;-71
2022/04/20 19:17:56;;;;;;;3.88;1.63;;;;;;;;;;8161842;28;20669;-72
2022/04/20 19:21:56;;;;;;;3.80;1.75;;;;;;;;;;8162763;28;20085;-71
2022/04/20 19:25:58;;;;;;;3.50;1.70;;;;;;;;;;8160240;28;20034;-72
2022/04/20 19:29:58;;;;;;;8.85;5.20;;;;;;;;;;8150472;28;20085;-71
2022/04/20 19:33:59;;;;;;;4.53;2.65;;;;;;;;;;8162890;28;20142;-71
2022/04/20 19:37:59;;;;;;;3.03;2.00;;;;;;;;;;8162578;28;20578;-71
2022/04/20 19:41:59;;;;;;;3.38;2.25;;;;;;;;;;8163765;28;20035;-71
2022/04/20 19:45:59;;;;;;;4.15;1.90;;;;;;;;;;8159033;28;20154;-71
2022/04/20 19:49:59;;;;;;;5.53;2.00;;;;;;;;;;8159329;28;20419;-72
2022/04/20 19:54:00;;;;;;;2.33;1.73;;;;;;;;;;8173259;28;21012;-72
2022/04/20 19:58:00;;;;;;;2.25;1.88;;;;;;;;;;8158478;28;20027;-72
2022/04/20 20:02:00;;;;;;;3.53;1.65;;;;;;;;;;8159977;28;20039;-70
2022/04/20 20:06:17;;;;;;;8.40;1.58;;;;;;;;;;8162856;28;20523;-71
2022/04/20 20:10:17;;;;;;;1.90;1.70;;;;;;;;;;8160722;28;20441;-71
2022/04/20 20:14:18;;;;;;;3.70;1.90;;;;;;;;;;8160076;28;20020;-70
2022/04/20 20:18:18;;;;;;;4.00;1.92;;;;;;;;;;8160869;28;20046;-70
2022/04/20 20:22:20;;;;;;;2.22;1.67;;;;;;;;;;8161080;28;20034;-70
2022/04/20 20:30:39;;;;;;;3.35;1.98;;;;;;;;;;8159209;28;20173;-70
2022/04/20 20:34:40;;;;;;;3.80;1.80;;;;;;;;;;8159903;28;20039;-70
2022/04/20 20:38:40;;;;;;;2.63;1.77;;;;;;;;;;8161127;28;20086;-70
2022/04/20 20:42:41;;;;;;;4.47;1.90;;;;;;;;;;8160534;28;20057;-70
2022/04/20 20:46:41;;;;;;;2.08;1.60;;;;;;;;;;8163352;28;20069;-70
2022/04/20 20:50:41;;;;;;;2.70;1.80;;;;;;;;;;8162489;28;20031;-70
2022/04/20 20:54:42;;;;;;;3.25;1.70;;;;;;;;;;8162268;28;20034;-70
2022/04/20 20:58:42;;;;;;;2.42;1.83;;;;;;;;;;8170328;28;20031;-70
2022/04/20 21:02:42;;;;;;;2.08;1.63;;;;;;;;;;8167165;28;20043;-70
2022/04/20 21:06:44;;;;;;;4.38;1.92;;;;;;;;;;8161476;28;20046;-70
2022/04/20 21:10:44;;;;;;;2.15;1.75;;;;;;;;;;8161343;28;20023;-70
2022/04/20 21:14:44;;;;;;;6.00;1.83;;;;;;;;;;8161187;28;20086;-71
2022/04/20 21:18:44;;;;;;;1.88;1.70;;;;;;;;;;8156322;28;20153;-71
2022/04/20 21:22:45;;;;;;;4.43;1.50;;;;;;;;;;8161264;28;20687;-71
2022/04/20 21:26:45;;;;;;;7.47;1.80;;;;;;;;;;8159997;28;20114;-71
2022/04/20 21:30:45;;;;;;;1.60;1.50;;;;;;;;;;8159642;28;20046;-71
2022/04/20 21:34:46;;;;;;;4.10;1.83;;;;;;;;;;8169608;28;20031;-71
2022/04/20 21:38:46;;;;;;;1.70;1.48;;;;;;;;;;8160958;28;20027;-71
2022/04/20 21:42:46;;;;;;;3.28;1.60;;;;;;;;;;8162611;28;20510;-71
2022/04/20 21:46:47;;;;;;;2.25;1.67;;;;;;;;;;8162360;28;20046;-71
2022/04/20 21:50:47;;;;;;;3.80;1.67;;;;;;;;;;8158452;28;20027;-71
2022/04/20 21:54:48;;;;;;;1.80;1.60;;;;;;;;;;8161429;28;20082;-71
2022/04/20 21:58:48;;;;;;;2.38;1.60;;;;;;;;;;8164745;28;20731;-71
2022/04/20 22:15:48;;;;;;;3.15;1.80;;;;;;;;;;8167702;28;20110;-71
2022/04/20 22:19:48;;;;;;;2.03;1.60;;;;;;;;;;8167741;28;20058;-70
2022/04/20 22:23:49;;;;;;;4.15;1.80;;;;;;;;;;8163918;28;20031;-71
2022/04/20 22:27:49;;;;;;;1.88;1.40;;;;;;;;;;8167861;28;20027;-71
2022/04/20 22:31:50;;;;;;;5.85;1.50;;;;;;;;;;8164289;28;20038;-71
2022/04/20 22:35:50;;;;;;;2.55;1.50;;;;;;;;;;8164820;28;20032;-71
2022/04/20 22:39:50;;;;;;;1.67;1.58;;;;;;;;;;8166678;28;20035;-71
2022/04/20 22:43:51;;;;;;;4.60;2.00;;;;;;;;;;8164220;28;20039;-71
2022/04/20 22:47:51;;;;;;;3.35;1.70;;;;;;;;;;8165202;28;20043;-71
2022/04/20 22:51:53;;;;;;;5.97;1.83;;;;;;;;;;8165525;28;20766;-70
2022/04/20 22:55:54;;;;;;;4.32;1.80;;;;;;;;;;8165559;28;20094;-71
2022/04/20 22:59:55;;;;;;;3.60;1.63;;;;;;;;;;8164677;28;20019;-71
2022/04/20 23:03:55;;;;;;;5.63;1.90;;;;;;;;;;8161515;28;20817;-71
2022/04/20 23:07:55;;;;;;;3.83;2.10;;;;;;;;;;8163051;28;20035;-71
2022/04/20 23:11:55;;;;;;;2.38;1.77;;;;;;;;;;8162923;28;20027;-70
2022/04/20 23:15:55;;;;;;;2.17;1.97;;;;;;;;;;8162119;28;20671;-70
2022/04/20 23:19:56;;;;;;;2.33;1.92;;;;;;;;;;8163218;28;20290;-71
2022/04/20 23:23:56;;;;;;;2.45;1.92;;;;;;;;;;8162277;28;20789;-71
2022/04/20 23:32:17;;;;;;;4.95;2.20;;;;;;;;;;8160378;28;20756;-71
2022/04/20 23:36:17;;;;;;;4.05;2.28;;;;;;;;;;8164644;28;20019;-71
2022/04/20 23:40:17;;;;;;;3.20;1.90;;;;;;;;;;8162514;28;20022;-71
2022/04/20 23:44:17;;;;;;;1.83;1.70;;;;;;;;;;8171870;28;20715;-71
2022/04/20 23:48:18;;;;;;;3.42;1.73;;;;;;;;;;8163927;28;20035;-70
2022/04/20 23:52:18;;;;;;;2.43;1.80;;;;;;;;;;8160088;28;20023;-71
2022/04/20 23:56:18;;;;;;;2.40;2.10;;;;;;;;;;8160647;28;20270;-71
